createdAt,value
2018-07-16T00:05:23.454Z,98.5
2018-07-16T00:10:28.670Z,98.9
2018-07-16T00:15:30.909Z,99.4
2018-07-16T00:20:16.086Z,99.5
2018-07-16T00:30:08.230Z,99.9
2018-07-16T00:40:05.974Z,99.9
2018-07-16T00:45:25.606Z,99.9
2018-07-16T00:50:08.044Z,99.9
2018-07-16T00:55:33.739Z,99.9
2018-07-16T01:00:18.444Z,99.9
2018-07-16T01:05:33.046Z,99.5
2018-07-16T01:15:03.159Z,99.9
2018-07-16T01:20:12.743Z,99.9
2018-07-16T01:30:11.014Z,99.9
2018-07-16T01:35:33.111Z,99.9
2018-07-16T01:40:05.519Z,99.9
2018-07-16T01:45:31.287Z,99.9
2018-07-16T01:50:02.769Z,99.9
2018-07-16T01:55:05.757Z,99.9
2018-07-16T02:05:03.413Z,99.9
2018-07-16T02:10:20.991Z,99.9
2018-07-16T02:20:13.381Z,99.9
2018-07-16T02:25:17.768Z,99.9
2018-07-16T02:30:03.223Z,99.9
2018-07-16T02:35:38.162Z,99.9
2018-07-16T02:40:35.890Z,99.9
2018-07-16T02:45:08.361Z,99.9
2018-07-16T02:50:28.108Z,99.9
2018-07-16T02:55:06.034Z,99.9
2018-07-16T03:05:22.966Z,99.9
2018-07-16T03:10:23.135Z,99.9
2018-07-16T03:15:08.467Z,99.9
2018-07-16T03:20:35.817Z,99.9
2018-07-16T03:30:08.582Z,99.9
2018-07-16T03:35:23.195Z,99.9
2018-07-16T03:50:18.767Z,99.9
2018-07-16T03:55:03.040Z,99.9
2018-07-16T04:00:05.995Z,99.9
2018-07-16T04:10:06.084Z,99.9
2018-07-16T04:15:18.286Z,99.9
2018-07-16T04:20:15.433Z,99.9
2018-07-16T04:25:08.313Z,99.9
2018-07-16T04:30:27.959Z,93.5
2018-07-16T04:35:08.399Z,99.9
2018-07-16T04:40:05.806Z,99.9
2018-07-16T04:50:18.201Z,99.9
2018-07-16T05:00:05.298Z,99.9
2018-07-16T05:15:03.252Z,99.9
2018-07-16T05:20:05.730Z,99.9
2018-07-16T05:30:05.414Z,99.9
2018-07-16T05:35:03.562Z,99.9
2018-07-16T05:40:05.391Z,99.9
2018-07-16T05:45:08.312Z,99.9
2018-07-16T05:50:10.326Z,99.9
2018-07-16T06:00:05.191Z,99.9
2018-07-16T06:05:38.555Z,99.9
2018-07-16T06:10:31.235Z,99.9
2018-07-16T06:15:02.622Z,99.9
2018-07-16T06:20:30.998Z,99.9
2018-07-16T06:25:03.440Z,99.9
2018-07-16T06:30:08.525Z,99.8
2018-07-16T06:35:05.808Z,99.4
2018-07-16T06:40:05.701Z,98.8
2018-07-16T06:45:25.373Z,98.4
2018-07-16T06:50:02.744Z,98.4
2018-07-16T06:55:03.281Z,98.6
2018-07-16T07:00:22.888Z,98.7
2018-07-16T07:05:27.870Z,98.9
2018-07-16T07:10:05.857Z,98.6
2018-07-16T07:15:18.669Z,97.1
2018-07-16T07:20:05.453Z,96.1
2018-07-16T07:25:03.327Z,96.1
2018-07-16T07:35:11.016Z,66.6
2018-07-16T07:40:13.166Z,92.7
2018-07-16T07:45:03.453Z,92.7
2018-07-16T07:50:38.273Z,93.3
2018-07-16T07:55:38.739Z,92.8
2018-07-16T08:00:08.323Z,92.9
2018-07-16T08:10:13.578Z,92.4
2018-07-16T08:15:13.075Z,92.2
2018-07-16T08:20:05.199Z,91.7
2018-07-16T08:25:20.840Z,91.2
2018-07-16T08:30:11.187Z,88.9
2018-07-16T08:35:02.972Z,88.9
2018-07-16T08:40:28.289Z,89.5
2018-07-16T08:45:10.366Z,89.2
2018-07-16T08:50:08.045Z,85.4
2018-07-16T08:55:08.448Z,85.9
2018-07-16T09:00:10.467Z,84.2
2018-07-16T09:05:16.064Z,83.3
2018-07-16T09:10:02.972Z,83.3
2018-07-16T09:15:03.552Z,81.7
2018-07-16T09:20:10.684Z,75.8
2018-07-16T09:25:36.653Z,74.2
2018-07-16T09:30:33.521Z,73.2
2018-07-16T09:35:38.334Z,74.1
2018-07-16T09:45:07.742Z,69.7
2018-07-16T09:50:03.201Z,69.7
2018-07-16T09:55:33.009Z,70.5
2018-07-16T10:00:11.140Z,69.9
2018-07-16T10:05:03.047Z,69.9
2018-07-16T10:10:23.351Z,65.5
2018-07-16T10:20:06.007Z,63.1
2018-07-16T10:25:07.931Z,61.9
2018-07-16T10:35:02.635Z,63.8
2018-07-16T10:40:11.140Z,61.1
2018-07-16T10:45:18.205Z,59.6
2018-07-16T11:00:08.388Z,59.2
2018-07-16T11:05:12.958Z,59.2
2018-07-16T11:10:33.339Z,57.7
2018-07-16T11:15:26.241Z,57.6
2018-07-16T11:20:15.396Z,57
2018-07-16T11:25:18.388Z,56.8
2018-07-16T11:30:15.504Z,56.9
2018-07-16T11:40:03.080Z,56.2
2018-07-16T11:45:07.638Z,56.4
2018-07-16T11:50:06.040Z,55.1
2018-07-16T11:55:15.801Z,55.2
2018-07-16T12:05:03.603Z,53.9
2018-07-16T12:10:15.232Z,54.3
2018-07-16T12:15:08.288Z,53.8
2018-07-16T12:20:05.386Z,54.2
2018-07-16T12:25:10.841Z,53.9
2018-07-16T12:30:10.977Z,53
2018-07-16T12:40:02.621Z,52.1
2018-07-16T12:45:10.756Z,52.2
2018-07-16T12:50:18.508Z,50.9
2018-07-16T12:55:05.228Z,50.2
2018-07-16T13:00:17.944Z,51.2
2018-07-16T13:05:10.854Z,50
2018-07-16T13:10:07.977Z,49.7
2018-07-16T13:20:05.441Z,49
2018-07-16T13:25:38.798Z,46.9
2018-07-16T13:30:10.854Z,45.2
2018-07-16T13:35:05.379Z,45.7
2018-07-16T13:40:05.970Z,39.9
2018-07-16T13:45:03.118Z,39.8
2018-07-16T13:50:23.163Z,32.4
2018-07-16T13:55:07.754Z,32.1
2018-07-16T14:00:03.337Z,32
2018-07-16T14:05:20.644Z,30.5
2018-07-16T14:10:02.706Z,30.7
2018-07-16T14:15:11.081Z,28.9
2018-07-16T14:20:05.250Z,28.6
2018-07-16T14:25:05.981Z,27.8
2018-07-16T14:30:06.063Z,27.3
2018-07-16T14:35:20.954Z,27.2
2018-07-16T14:40:16.149Z,27.2
2018-07-16T14:45:23.401Z,26.9
2018-07-16T14:50:03.303Z,27
2018-07-16T14:55:08.144Z,27.8
2018-07-16T15:00:15.527Z,27.6
2018-07-16T15:05:02.863Z,27.5
2018-07-16T15:10:13.214Z,28.9
2018-07-16T15:15:17.867Z,30
2018-07-16T15:20:04.054Z,30
2018-07-16T15:25:10.199Z,31.3
2018-07-16T15:30:10.236Z,32
2018-07-16T15:35:08.300Z,32.2
2018-07-16T15:40:08.307Z,32.6
2018-07-16T15:45:07.830Z,34.5
2018-07-16T15:55:07.914Z,35.7
2018-07-16T16:00:21.057Z,34.6
2018-07-16T16:05:02.860Z,34.5
2018-07-16T16:10:30.533Z,34.3
2018-07-16T16:15:18.085Z,32.1
2018-07-16T16:20:20.328Z,31.1
2018-07-16T16:25:08.369Z,32.1
2018-07-16T16:30:02.952Z,32.1
2018-07-16T16:35:11.115Z,32.2
2018-07-16T16:40:20.708Z,32.8
2018-07-16T16:45:23.731Z,35.2
2018-07-16T16:50:08.206Z,34.7
2018-07-16T16:55:07.765Z,35.6
2018-07-16T17:00:31.063Z,37.2
2018-07-16T17:05:08.528Z,37.4
2018-07-16T17:10:26.120Z,38.1
2018-07-16T17:15:28.798Z,39.6
2018-07-16T17:20:16.118Z,40.9
2018-07-16T17:25:10.450Z,41.3
2018-07-16T17:30:02.838Z,41.3
2018-07-16T17:35:10.844Z,43.9
2018-07-16T17:40:12.851Z,44.3
2018-07-16T17:50:18.739Z,47.3
2018-07-16T17:55:23.234Z,46.7
2018-07-16T18:00:15.247Z,49.4
2018-07-16T18:05:05.547Z,48.6
2018-07-16T18:10:05.941Z,49.3
2018-07-16T18:20:03.141Z,49.6
2018-07-16T18:25:17.743Z,48.4
2018-07-16T18:30:05.684Z,51.1
2018-07-16T18:35:22.840Z,50.6
2018-07-16T18:40:12.915Z,54
2018-07-16T18:45:15.864Z,51.3
2018-07-16T18:50:08.293Z,53.8
2018-07-16T18:55:12.816Z,53.7
2018-07-16T19:00:10.785Z,57.9
2018-07-16T19:05:07.658Z,57
2018-07-16T19:10:03.499Z,56.9
2018-07-16T19:15:28.197Z,58.4
2018-07-16T19:20:02.603Z,58.3
2018-07-16T19:25:08.047Z,60.5
2018-07-16T19:35:07.663Z,62.7
2018-07-16T19:45:12.818Z,66.4
2018-07-16T19:55:18.811Z,69.9
2018-07-16T20:00:03.196Z,69.9
2018-07-16T20:05:02.689Z,71
2018-07-16T20:10:05.400Z,70.1
2018-07-16T20:20:05.914Z,71.6
2018-07-16T20:25:20.628Z,72
2018-07-16T20:30:08.087Z,72.2
2018-07-16T20:35:23.671Z,73.6
2018-07-16T20:45:05.226Z,75.4
2018-07-16T20:50:16.269Z,76.3
2018-07-16T20:55:10.524Z,77
2018-07-16T21:00:02.848Z,76.9
2018-07-16T21:05:08.305Z,78.9
2018-07-16T21:10:33.432Z,79.4
2018-07-16T21:20:05.606Z,81.8
2018-07-16T21:25:03.520Z,81.8
2018-07-16T21:30:02.970Z,82.5
2018-07-16T21:35:02.545Z,83.6
2018-07-16T21:40:26.331Z,86.4
2018-07-16T21:45:10.422Z,86.6
2018-07-16T21:50:02.777Z,86.6
2018-07-16T21:55:28.443Z,89.1
2018-07-16T22:00:07.839Z,90
2018-07-16T22:05:31.020Z,90.4
2018-07-16T22:10:20.498Z,91
2018-07-16T22:15:03.221Z,91.1
2018-07-16T22:20:10.411Z,91.6
2018-07-16T22:25:23.406Z,91.7
2018-07-16T22:30:05.310Z,92
2018-07-16T22:35:15.760Z,92.4
2018-07-16T22:40:18.793Z,92.8
2018-07-16T22:45:30.716Z,93.4
2018-07-16T22:50:33.396Z,93.7
2018-07-16T22:55:15.346Z,94.3
2018-07-16T23:00:12.842Z,94.6
2018-07-16T23:05:15.716Z,95.1
2018-07-16T23:10:11.062Z,95.2
2018-07-16T23:15:30.629Z,95.5
2018-07-16T23:20:23.275Z,96
2018-07-16T23:25:07.610Z,95.7
2018-07-16T23:30:02.971Z,95.7
2018-07-16T23:35:15.925Z,98.1
2018-07-16T23:40:05.330Z,98.4
2018-07-16T23:45:15.874Z,98.3
2018-07-16T23:50:23.707Z,98.3
2018-07-16T23:55:15.681Z,98.7
